Time;durP1;ratioP1;P1;durP2;ratioP2;P2;SDS_P1;SDS_P2;PMS_P1;PMS_P2;Temp;Humidity;BMP_temperature;BMP_pressure;BME280_temperature;BME280_humidity;BME280_pressure;Samples;Min_cycle;Max_cycle;Signal;HPM_P1;HPM_P2
2023/08/24 00:01:07;;;;;;;3.40;3.10;;;;;;;17.86;89.24;101868.00;5067655;28;20260;-74
2023/08/24 00:03:33;;;;;;;3.95;2.60;;;;;;;17.87;89.69;101872.38;5066388;28;20063;-74
2023/08/24 00:05:58;;;;;;;3.08;2.80;;;;;;;17.86;89.72;101861.84;5050513;28;20277;-74
2023/08/24 00:08:24;;;;;;;2.80;2.60;;;;;;;17.85;89.71;101839.81;5059064;28;20063;-74
2023/08/24 00:10:49;;;;;;;3.72;2.97;;;;;;;17.84;89.61;101833.63;5059514;28;20104;-74
2023/08/24 00:13:15;;;;;;;2.80;2.60;;;;;;;17.84;89.57;101836.28;5058615;28;20029;-74
2023/08/24 00:15:41;;;;;;;5.07;2.97;;;;;;;17.84;89.65;101844.22;5057922;28;20224;-74
2023/08/24 00:18:07;;;;;;;3.30;2.88;;;;;;;17.83;89.89;101842.50;5053024;28;20381;-74
2023/08/24 00:20:33;;;;;;;5.32;2.40;;;;;;;17.84;89.82;101846.00;5044642;28;20044;-74
2023/08/24 00:22:58;;;;;;;3.33;2.70;;;;;;;17.82;89.81;101845.22;5022090;28;20279;-74
2023/08/24 00:25:25;;;;;;;3.13;2.60;;;;;;;17.82;89.68;101847.88;5040990;28;20229;-74
2023/08/24 00:27:52;;;;;;;2.42;2.22;;;;;;;17.82;89.75;101850.53;5066660;28;20040;-74
2023/08/24 00:30:18;;;;;;;4.85;2.08;;;;;;;17.81;90.14;101849.69;5074559;28;20037;-74
2023/08/24 00:32:44;;;;;;;2.72;2.38;;;;;;;17.80;90.11;101852.41;5059600;28;20047;-74
2023/08/24 00:35:10;;;;;;;2.83;2.05;;;;;;;17.80;90.31;101844.47;5059578;28;20053;-74
2023/08/24 00:37:36;;;;;;;2.38;2.00;;;;;;;17.79;90.48;101835.69;5059662;28;20029;-74
2023/08/24 00:40:09;;;;;;;2.90;1.80;;;;;;;17.79;90.37;101845.41;5059650;28;20269;-74
2023/08/24 00:42:39;;;;;;;2.63;2.10;;;;;;;17.80;90.34;101847.97;5042612;28;20063;-74
2023/08/24 00:45:06;;;;;;;4.47;2.50;;;;;;;17.79;90.66;101846.28;5077638;28;20521;-74
2023/08/24 00:47:32;;;;;;;2.97;1.98;;;;;;;17.79;90.70;101843.63;5040974;28;20330;-74
2023/08/24 00:49:59;;;;;;;1.75;1.65;;;;;;;17.78;90.87;101839.25;5058985;28;20083;-74
2023/08/24 00:52:28;;;;;;;2.22;2.03;;;;;;;17.77;90.76;101845.50;5058725;28;20397;-74
2023/08/24 00:54:54;;;;;;;2.55;2.35;;;;;;;17.77;90.56;101837.56;5059711;28;20107;-74
2023/08/24 00:57:20;;;;;;;3.83;2.78;;;;;;;17.77;90.57;101840.22;5040920;28;20020;-74
2023/08/24 00:59:46;;;;;;;2.60;2.35;;;;;;;17.77;90.57;101842.84;5059348;28;20087;-74
2023/08/24 01:02:44;;;;;;;2.92;2.50;;;;;;;17.77;90.59;101856.09;5050078;28;20110;-74
2023/08/24 01:05:10;;;;;;;3.17;2.50;;;;;;;17.77;90.56;101848.16;5049600;28;20099;-74
2023/08/24 01:07:38;;;;;;;2.28;1.83;;;;;;;17.76;90.63;101841.13;5060275;28;20063;-74
2023/08/24 01:10:06;;;;;;;4.65;2.72;;;;;;;17.77;90.66;101841.97;5051015;28;20040;-74
2023/08/24 01:12:50;;;;;;;3.10;2.80;;;;;;;17.77;90.49;101829.63;5038736;28;20030;-74
2023/08/24 01:15:34;;;;;;;2.42;2.28;;;;;;;17.77;90.52;101824.31;5040707;28;20064;-74
2023/08/24 01:18:05;;;;;;;3.70;3.00;;;;;;;17.78;90.44;101828.66;5059438;28;20102;-74
2023/08/24 01:20:33;;;;;;;3.40;3.20;;;;;;;17.77;90.49;101821.66;5058707;28;20017;-74
2023/08/24 01:23:33;;;;;;;3.33;3.03;;;;;;;17.77;90.53;101831.38;5074736;28;20243;-74
2023/08/24 01:26:13;;;;;;;5.45;3.35;;;;;;;17.77;90.59;101828.72;5032587;28;20106;-74
2023/08/24 01:28:41;;;;;;;3.90;3.00;;;;;;;17.76;91.12;101825.25;5062084;28;20025;-74
2023/08/24 01:31:08;;;;;;;4.00;3.60;;;;;;;17.76;91.08;101824.41;5038086;28;20045;-74
2023/08/24 01:33:33;;;;;;;2.85;2.65;;;;;;;17.75;91.28;101823.50;5061304;28;20355;-74
2023/08/24 01:35:59;;;;;;;3.20;2.90;;;;;;;17.75;91.09;101820.88;5062069;28;20049;-74
2023/08/24 01:38:24;;;;;;;3.65;3.35;;;;;;;17.75;91.15;101826.16;5061716;28;20241;-74
2023/08/24 01:41:16;;;;;;;5.22;3.65;;;;;;;17.76;91.38;101824.41;5056256;28;20036;-74
2023/08/24 01:43:44;;;;;;;2.78;2.58;;;;;;;17.76;91.17;101819.09;5057829;28;20272;-74
2023/08/24 01:46:12;;;;;;;;;;;;;;;17.77;91.13;101823.44;5074182;28;20041;-74
2023/08/24 01:48:38;;;;;;;3.03;2.83;;;;;;;17.76;91.34;101817.28;5043718;28;20184;-74
2023/08/24 01:51:05;;;;;;;4.63;3.17;;;;;;;17.76;91.22;101817.28;5062656;28;20033;-74
2023/08/24 01:53:32;;;;;;;3.22;3.03;;;;;;;17.76;91.63;101800.56;5061586;28;20440;-74
2023/08/24 01:55:57;;;;;;;3.70;2.88;;;;;;;17.76;91.89;101795.25;5062261;28;20029;-74
2023/08/24 01:58:22;;;;;;;4.88;3.50;;;;;;;17.75;91.64;101793.53;5061663;28;20059;-74
2023/08/24 02:00:48;;;;;;;3.20;2.25;;;;;;;17.76;91.62;101782.84;5061700;28;20036;-74
2023/08/24 02:03:13;;;;;;;3.47;3.17;;;;;;;17.77;91.52;101775.75;5061691;28;20033;-74
2023/08/24 02:05:39;;;;;;;2.88;2.67;;;;;;;17.77;91.82;101767.81;5061409;28;20028;-74
2023/08/24 02:08:04;;;;;;;4.47;3.40;;;;;;;17.77;91.78;101759.84;5061906;28;20027;-74
2023/08/24 02:10:29;;;;;;;3.95;3.42;;;;;;;17.76;92.06;101748.41;5039809;28;20033;-76
2023/08/24 02:12:55;;;;;;;4.28;3.42;;;;;;;17.76;91.96;101737.81;5057564;28;20032;-76
2023/08/24 02:15:20;;;;;;;3.70;3.40;;;;;;;17.76;91.98;101729.03;5056865;28;20044;-76
2023/08/24 02:17:45;;;;;;;4.00;3.55;;;;;;;17.75;92.53;101716.69;5056884;28;20071;-76
2023/08/24 02:20:11;;;;;;;5.38;3.80;;;;;;;17.73;92.16;101714.13;5056878;28;20365;-77
2023/08/24 02:22:37;;;;;;;4.28;3.88;;;;;;;17.73;92.38;101718.59;5056227;28;20040;-77
2023/08/24 02:25:04;;;;;;;4.53;3.28;;;;;;;17.71;92.43;101713.38;5059158;28;20056;-74
2023/08/24 02:27:30;;;;;;;3.88;2.97;;;;;;;17.71;92.34;101713.38;5060987;28;20078;-74
2023/08/24 02:29:56;;;;;;;4.38;3.67;;;;;;;17.70;92.61;101716.97;5061055;28;20025;-74
2023/08/24 02:32:21;;;;;;;3.50;3.20;;;;;;;17.71;92.50;101721.31;5060685;28;20048;-74
2023/08/24 02:34:46;;;;;;;6.65;4.40;;;;;;;17.70;92.62;101716.09;5058364;28;20080;-74
2023/08/24 02:37:12;;;;;;;6.03;4.03;;;;;;;17.69;92.73;101709.97;5057924;28;20354;-74
2023/08/24 02:39:37;;;;;;;5.93;4.47;;;;;;;17.68;93.02;101716.19;5079256;28;20088;-74
2023/08/24 02:42:02;;;;;;;3.42;3.17;;;;;;;17.69;93.26;101723.22;5069056;28;20239;-74
2023/08/24 02:44:28;;;;;;;3.90;3.70;;;;;;;17.69;92.96;101725.84;5059907;28;20036;-74
2023/08/24 02:46:53;;;;;;;3.60;3.38;;;;;;;17.68;92.97;101716.19;5059148;28;20033;-74
2023/08/24 02:49:19;;;;;;;4.75;3.60;;;;;;;17.69;93.05;101719.72;5060115;28;20061;-74
2023/08/24 02:51:44;;;;;;;3.60;3.30;;;;;;;17.70;93.01;101718.75;5065411;28;20121;-74
2023/08/24 02:54:10;;;;;;;7.25;5.13;;;;;;;17.69;93.21;101703.81;5080681;28;20062;-74
2023/08/24 02:56:38;;;;;;;7.50;5.15;;;;;;;17.68;93.11;101708.25;5073294;28;20039;-74
2023/08/24 02:59:03;;;;;;;5.55;4.78;;;;;;;17.68;93.53;101699.44;5060119;28;20063;-74
2023/08/24 03:01:29;;;;;;;8.93;4.85;;;;;;;17.68;93.25;101696.78;5042073;28;20103;-74
2023/08/24 03:03:54;;;;;;;5.18;4.68;;;;;;;17.68;93.37;101691.50;5065064;28;20231;-73
2023/08/24 03:06:19;;;;;;;5.68;5.18;;;;;;;17.68;93.14;101697.66;5076404;28;20346;-74
2023/08/24 03:08:45;;;;;;;5.28;4.10;;;;;;;17.68;93.19;101683.56;5060470;28;20051;-74
2023/08/24 03:11:10;;;;;;;3.92;3.63;;;;;;;17.67;93.21;101677.41;5060132;28;20103;-74
2023/08/24 03:13:38;;;;;;;5.75;4.70;;;;;;;17.67;93.00;101684.50;5059772;28;20146;-74
2023/08/24 03:16:05;;;;;;;5.13;4.67;;;;;;;17.67;93.18;101695.94;5059812;28;20428;-74
2023/08/24 03:18:30;;;;;;;4.65;4.00;;;;;;;17.67;93.23;101682.72;5043969;28;20044;-74
2023/08/24 03:20:56;;;;;;;4.88;4.40;;;;;;;17.66;93.37;101675.69;5040181;28;20063;-73
2023/08/24 03:23:21;;;;;;;5.18;4.68;;;;;;;17.64;93.35;101667.84;5059438;28;20028;-74
2023/08/24 03:25:47;;;;;;;6.75;6.05;;;;;;;17.65;93.62;101666.06;5059748;28;20067;-74
2023/08/24 03:28:12;;;;;;;9.23;5.13;;;;;;;17.64;93.49;101659.03;5059769;28;20036;-74
2023/08/24 03:30:45;;;;;;;10.23;6.22;;;;;;;17.62;93.57;101659.13;5041856;28;20047;-74
2023/08/24 03:33:10;;;;;;;5.72;5.30;;;;;;;17.62;93.92;101663.56;5057326;28;20048;-74
2023/08/24 03:35:35;;;;;;;5.80;5.07;;;;;;;17.61;94.25;101672.47;5039119;28;20053;-74
2023/08/24 03:38:01;;;;;;;5.60;5.00;;;;;;;17.60;94.06;101666.31;5055619;28;20052;-74
2023/08/24 03:40:26;;;;;;;5.03;4.68;;;;;;;17.59;94.35;101659.31;5059055;28;20217;-74
2023/08/24 03:42:53;;;;;;;5.40;4.88;;;;;;;17.61;94.34;101672.47;5059177;28;20043;-74
2023/08/24 03:45:19;;;;;;;5.53;5.07;;;;;;;17.59;94.47;101671.69;5059233;28;20064;-74
2023/08/24 03:47:44;;;;;;;5.15;4.75;;;;;;;17.59;94.51;101675.22;5054658;28;20044;-74
2023/08/24 03:50:09;;;;;;;5.05;4.63;;;;;;;17.59;94.52;101669.03;5044916;28;20040;-74
2023/08/24 03:52:35;;;;;;;4.07;3.78;;;;;;;17.59;94.59;101661.97;5060557;28;20379;-74
2023/08/24 03:55:00;;;;;;;5.18;4.78;;;;;;;17.59;94.89;101663.75;5059378;28;20028;-74
2023/08/24 03:57:26;;;;;;;5.63;5.00;;;;;;;17.60;94.80;101670.75;5058845;28;20066;-74
2023/08/24 03:59:52;;;;;;;4.75;4.30;;;;;;;17.59;94.83;101676.97;5059414;28;20101;-74
2023/08/24 04:02:17;;;;;;;7.47;5.30;;;;;;;17.58;94.79;101670.84;5058796;28;20044;-74
2023/08/24 04:04:43;;;;;;;4.82;4.53;;;;;;;17.57;94.89;101674.44;5058619;28;20033;-74
2023/08/24 04:07:08;;;;;;;6.82;5.70;;;;;;;17.58;95.12;101678.78;5058453;28;20096;-74
2023/08/24 04:09:33;;;;;;;5.60;4.97;;;;;;;17.57;94.90;101682.38;5058053;28;20043;-74
2023/08/24 04:12:00;;;;;;;5.63;5.13;;;;;;;17.57;94.93;101678.88;5059017;28;20098;-74
2023/08/24 04:14:25;;;;;;;6.40;5.80;;;;;;;17.56;95.07;101682.47;5059058;28;20212;-74
2023/08/24 04:16:52;;;;;;;6.47;5.82;;;;;;;17.55;95.18;101683.41;5059201;28;20046;-74
2023/08/24 04:19:17;;;;;;;5.63;5.07;;;;;;;17.55;95.23;101683.41;5041231;28;20266;-74
2023/08/24 04:21:42;;;;;;;5.82;5.22;;;;;;;17.54;95.28;101692.31;5058886;28;20860;-74
2023/08/24 04:24:08;;;;;;;5.28;4.80;;;;;;;17.54;95.47;101684.34;5059569;28;20405;-74
2023/08/24 04:26:34;;;;;;;6.07;4.68;;;;;;;17.53;95.35;101678.19;5041026;28;20343;-74
2023/08/24 04:29:01;;;;;;;7.43;4.90;;;;;;;17.53;95.70;101680.84;5059429;28;20152;-74
2023/08/24 04:31:26;;;;;;;4.45;4.03;;;;;;;17.54;95.68;101668.47;5058727;28;20046;-74
2023/08/24 04:33:52;;;;;;;6.20;4.90;;;;;;;17.54;95.81;101669.31;5059157;28;20328;-74
2023/08/24 04:36:17;;;;;;;5.43;4.90;;;;;;;17.53;95.61;101654.34;5058818;28;20052;-74
2023/08/24 04:38:43;;;;;;;5.15;4.75;;;;;;;17.54;95.40;101653.44;5058639;28;20078;-74
2023/08/24 04:41:09;;;;;;;5.95;5.30;;;;;;;17.52;95.33;101651.78;5059473;28;20248;-74
2023/08/24 04:43:38;;;;;;;6.00;5.50;;;;;;;17.51;95.23;101645.66;5058013;28;20064;-74
2023/08/24 04:46:03;;;;;;;6.38;5.72;;;;;;;17.51;95.21;101643.00;5058664;28;20056;-74
2023/08/24 04:48:34;;;;;;;5.15;4.65;;;;;;;17.49;95.24;101636.94;5057433;28;20063;-74
2023/08/24 04:51:00;;;;;;;5.20;4.57;;;;;;;17.49;95.31;101641.38;5058968;28;20096;-74
2023/08/24 04:53:26;;;;;;;6.07;5.50;;;;;;;17.47;95.24;101636.19;5039985;28;20029;-74
2023/08/24 04:55:51;;;;;;;11.85;7.38;;;;;;;17.46;95.46;101635.34;5048370;28;20232;-74
2023/08/24 04:58:17;;;;;;;5.25;4.80;;;;;;;17.44;95.48;101629.28;5051496;28;20103;-74
2023/08/24 05:00:42;;;;;;;5.70;5.28;;;;;;;17.44;95.44;101633.69;5054080;28;20092;-74
2023/08/24 05:03:08;;;;;;;5.38;4.88;;;;;;;17.43;95.53;101630.19;5036242;28;20116;-74
2023/08/24 05:05:35;;;;;;;4.65;4.20;;;;;;;17.44;95.72;101628.41;5047128;28;20064;-74
2023/08/24 05:08:01;;;;;;;6.07;5.50;;;;;;;17.43;95.84;101622.25;5052968;28;20100;-74
2023/08/24 05:10:30;;;;;;;5.72;5.05;;;;;;;17.44;95.78;101613.38;5050211;28;20043;-73
2023/08/24 05:12:55;;;;;;;;;;;;;;;17.44;95.83;101609.88;5062308;28;20377;-74
2023/08/24 05:15:21;;;;;;;4.57;4.17;;;;;;;17.44;96.05;101597.50;5044399;28;19952;-74
2023/08/24 05:17:46;;;;;;;4.40;3.97;;;;;;;17.45;95.87;101593.88;5057736;28;20033;-74
2023/08/24 05:20:11;;;;;;;6.57;4.35;;;;;;;17.44;95.90;101588.69;5047663;28;20263;-73
2023/08/24 05:22:37;;;;;;;6.30;5.72;;;;;;;17.44;95.93;101589.56;5067757;28;20143;-73
2023/08/24 05:25:03;;;;;;;6.25;5.57;;;;;;;17.45;96.21;101585.09;5062072;28;20324;-74
2023/08/24 05:27:28;;;;;;;6.32;5.72;;;;;;;17.45;96.14;101595.69;5061806;28;20078;-74
2023/08/24 05:29:54;;;;;;;8.40;6.60;;;;;;;17.45;96.34;101596.53;5062303;28;20029;-73
2023/08/24 05:32:19;;;;;;;5.93;5.30;;;;;;;17.45;96.41;101601.84;5043602;28;20047;-73
2023/08/24 05:34:45;;;;;;;7.93;6.85;;;;;;;17.46;96.47;101605.31;5062071;28;20032;-74
2023/08/24 05:37:11;;;;;;;6.20;5.32;;;;;;;17.48;96.43;101603.44;5061956;28;20057;-74
2023/08/24 05:39:36;;;;;;;5.80;5.38;;;;;;;17.49;96.65;101597.22;5061942;28;20100;-74
2023/08/24 05:42:02;;;;;;;11.02;8.18;;;;;;;17.50;96.74;101588.34;5062165;28;20059;-74
2023/08/24 05:44:27;;;;;;;7.55;6.85;;;;;;;17.51;97.07;101581.25;5043896;28;20025;-74
2023/08/24 05:46:52;;;;;;;8.50;7.00;;;;;;;17.51;97.31;101566.19;5062342;28;20323;-74
2023/08/24 05:49:18;;;;;;;8.88;7.93;;;;;;;17.52;97.44;101569.69;5061414;28;20044;-73
2023/08/24 05:51:43;;;;;;;12.27;9.18;;;;;;;17.52;97.88;101562.63;5062305;28;20356;-73
2023/08/24 05:54:09;;;;;;;8.48;7.65;;;;;;;17.54;98.13;101566.03;5062402;28;20389;-73
2023/08/24 05:56:34;;;;;;;13.65;9.45;;;;;;;17.56;98.02;101563.28;5062225;28;20147;-73
2023/08/24 05:59:00;;;;;;;6.47;5.82;;;;;;;17.56;98.25;101560.66;5056218;28;20071;-73
2023/08/24 06:01:25;;;;;;;9.27;7.32;;;;;;;17.59;98.41;101560.44;5061810;28;20221;-74
2023/08/24 06:03:51;;;;;;;10.70;8.73;;;;;;;17.61;98.95;101562.09;5054009;28;20098;-74
2023/08/24 06:06:16;;;;;;;10.93;8.30;;;;;;;17.62;98.68;101553.19;5041275;28;20041;-73
2023/08/24 06:08:42;;;;;;;9.30;8.52;;;;;;;17.64;98.84;101543.38;5053693;28;20528;-73
2023/08/24 06:11:07;;;;;;;10.57;9.20;;;;;;;17.66;99.01;101535.31;5061374;28;20344;-73
2023/08/24 06:13:33;;;;;;;9.50;7.97;;;;;;;17.70;99.26;101539.50;5060189;28;20067;-73
2023/08/24 06:15:58;;;;;;;10.90;8.88;;;;;;;17.72;99.35;101536.72;5043757;28;20037;-73
2023/08/24 06:18:24;;;;;;;12.32;8.60;;;;;;;17.74;99.55;101535.72;5070188;28;20256;-73
2023/08/24 06:20:49;;;;;;;10.00;8.70;;;;;;;17.76;99.43;101536.47;5070066;28;20323;-73
2023/08/24 06:23:16;;;;;;;8.70;7.80;;;;;;;17.78;99.82;101531.09;5067773;28;20035;-73
2023/08/24 06:25:43;;;;;;;12.98;9.85;;;;;;;17.80;99.75;101532.69;5061151;28;20098;-73
2023/08/24 06:28:09;;;;;;;12.98;9.48;;;;;;;17.84;99.85;101525.41;5067240;28;20035;-73
2023/08/24 06:30:38;;;;;;;12.18;10.10;;;;;;;17.85;99.93;101516.56;5069851;28;20087;-73
2023/08/24 06:33:04;;;;;;;8.98;7.97;;;;;;;17.87;100.00;101516.47;5065009;28;20021;-73
2023/08/24 06:35:29;;;;;;;11.23;9.05;;;;;;;17.90;100.00;101516.25;5051363;28;20048;-73
2023/08/24 06:37:55;;;;;;;12.10;9.98;;;;;;;17.91;100.00;101518.81;5070056;28;20059;-73
2023/08/24 06:40:20;;;;;;;11.07;9.38;;;;;;;17.93;100.00;101526.69;5061109;28;20349;-73
2023/08/24 06:42:46;;;;;;;15.10;10.65;;;;;;;17.95;100.00;101524.78;5059692;28;20209;-73
2023/08/24 06:45:11;;;;;;;12.07;9.73;;;;;;;17.97;100.00;101529.06;5059442;28;20033;-73
2023/08/24 06:47:37;;;;;;;14.35;11.85;;;;;;;17.99;100.00;101534.25;5059857;28;20093;-73
2023/08/24 06:50:03;;;;;;;15.80;11.68;;;;;;;18.00;100.00;101526.22;5063697;28;20037;-74
2023/08/24 06:52:28;;;;;;;16.83;12.43;;;;;;;18.04;100.00;101518.94;5043402;28;20050;-74
2023/08/24 06:54:56;;;;;;;12.90;11.25;;;;;;;18.07;100.00;101524.06;5060244;28;20036;-74
2023/08/24 06:57:21;;;;;;;17.60;12.77;;;;;;;18.10;100.00;101512.38;5060568;28;20681;-73
2023/08/24 06:59:47;;;;;;;15.20;10.38;;;;;;;18.12;100.00;101507.84;5041923;28;20096;-74
2023/08/24 07:02:12;;;;;;;18.60;13.02;;;;;;;18.16;100.00;101512.88;5058507;28;20041;-74
2023/08/24 07:04:40;;;;;;;12.80;10.10;;;;;;;18.20;100.00;101516.19;5061821;28;20399;-74
2023/08/24 07:07:06;;;;;;;15.77;11.90;;;;;;;18.25;100.00;101518.56;5069399;28;20359;-73
2023/08/24 07:09:31;;;;;;;16.52;13.02;;;;;;;18.28;100.00;101528.97;5068508;28;20109;-73
2023/08/24 07:11:56;;;;;;;19.15;13.32;;;;;;;18.30;100.00;101519.97;5064739;28;20045;-73
2023/08/24 07:14:22;;;;;;;14.02;10.23;;;;;;;18.31;100.00;101518.19;5062245;28;20036;-74
2023/08/24 07:16:47;;;;;;;13.77;11.52;;;;;;;18.35;100.00;101517.03;5066018;28;20035;-74
2023/08/24 07:19:13;;;;;;;16.45;12.70;;;;;;;18.37;100.00;101517.78;5074161;28;20287;-74
2023/08/24 07:21:38;;;;;;;13.60;11.68;;;;;;;18.41;100.00;101516.66;5068327;28;20043;-73
2023/08/24 07:24:04;;;;;;;15.00;12.52;;;;;;;18.47;100.00;101510.13;5064245;28;20063;-73
2023/08/24 07:26:30;;;;;;;14.10;11.23;;;;;;;18.49;99.98;101495.78;5067747;28;20294;-73
2023/08/24 07:28:56;;;;;;;16.05;12.77;;;;;;;18.54;100.00;101501.66;5066665;28;20200;-73
2023/08/24 07:31:22;;;;;;;15.05;11.20;;;;;;;18.59;100.00;101507.53;5048035;28;20088;-74
2023/08/24 07:33:48;;;;;;;15.20;11.10;;;;;;;18.64;99.63;101519.63;5051883;28;20209;-74
2023/08/24 07:36:14;;;;;;;16.92;11.80;;;;;;;18.67;99.55;101516.81;5050681;28;20044;-74
2023/08/24 07:38:39;;;;;;;12.23;10.05;;;;;;;18.68;99.50;101506.09;5048666;28;20115;-74
2023/08/24 07:41:06;;;;;;;14.70;11.88;;;;;;;18.71;99.23;101494.41;5048440;28;20052;-74
2023/08/24 07:43:31;;;;;;;13.80;11.43;;;;;;;18.74;99.56;101499.53;5052301;28;20037;-74
2023/08/24 07:45:57;;;;;;;11.27;9.40;;;;;;;18.76;99.25;101494.97;5058030;28;20024;-74
2023/08/24 07:48:22;;;;;;;12.98;8.95;;;;;;;18.79;99.29;101492.09;5056146;28;20354;-74
2023/08/24 07:50:48;;;;;;;12.13;10.35;;;;;;;18.83;99.13;101498.09;5053407;28;20028;-74
2023/08/24 07:53:14;;;;;;;11.95;10.60;;;;;;;18.85;99.01;101494.41;5053334;28;20040;-74
2023/08/24 07:55:39;;;;;;;14.25;11.25;;;;;;;18.88;99.33;101498.66;5041400;28;20037;-74
2023/08/24 07:58:05;;;;;;;11.93;9.73;;;;;;;18.90;99.22;101488.78;5059992;28;20029;-74
2023/08/24 08:00:30;;;;;;;10.23;8.38;;;;;;;18.91;99.19;101478.06;5058421;28;20021;-74
2023/08/24 08:02:56;;;;;;;11.98;8.07;;;;;;;18.95;99.25;101482.22;5058366;28;20104;-74
2023/08/24 08:05:22;;;;;;;11.32;9.00;;;;;;;18.98;99.28;101481.19;5059861;28;20056;-73
2023/08/24 08:07:48;;;;;;;11.80;9.07;;;;;;;19.01;99.30;101490.75;5060150;28;20368;-73
2023/08/24 08:10:15;;;;;;;12.55;9.52;;;;;;;19.03;99.39;101486.19;5058395;28;20032;-74
2023/08/24 08:12:40;;;;;;;12.95;9.77;;;;;;;19.06;99.46;101485.97;5059155;28;20055;-74
2023/08/24 08:15:06;;;;;;;13.43;9.48;;;;;;;19.08;99.55;101476.97;5072173;28;20044;-74
2023/08/24 08:17:33;;;;;;;12.23;9.48;;;;;;;19.11;99.77;101482.06;5059173;28;20048;-74
2023/08/24 08:19:58;;;;;;;10.70;8.48;;;;;;;19.14;99.32;101475.72;5057938;28;20036;-74
2023/08/24 08:22:25;;;;;;;12.32;10.82;;;;;;;19.17;99.60;101467.53;5031488;28;20100;-74
2023/08/24 08:24:51;;;;;;;14.65;11.90;;;;;;;19.20;99.67;101463.84;5043943;28;20040;-74
2023/08/24 08:27:16;;;;;;;21.20;11.43;;;;;;;19.22;99.48;101446.84;5048691;28;20059;-74
2023/08/24 08:29:42;;;;;;;16.50;10.90;;;;;;;19.25;99.29;101443.13;5049797;28;20029;-74
2023/08/24 08:32:08;;;;;;;13.13;11.23;;;;;;;19.28;99.38;101445.56;5051121;28;20040;-73
2023/08/24 08:34:33;;;;;;;12.68;10.23;;;;;;;19.30;99.49;101439.22;5046268;28;20029;-73
2023/08/24 08:36:58;;;;;;;14.38;10.27;;;;;;;19.31;99.50;101432.94;5054473;28;20053;-74
2023/08/24 08:39:24;;;;;;;13.55;9.20;;;;;;;19.33;99.52;101420.41;5057762;28;20033;-74
2023/08/24 08:41:49;;;;;;;15.20;10.35;;;;;;;19.36;99.76;101416.69;5042943;28;20048;-74
2023/08/24 08:44:15;;;;;;;11.05;9.35;;;;;;;19.40;99.70;101417.34;5049564;28;20115;-74
2023/08/24 08:46:45;;;;;;;18.40;12.43;;;;;;;19.42;99.55;101416.25;5064328;28;20461;-74
2023/08/24 08:49:15;;;;;;;13.60;10.60;;;;;;;19.45;99.48;101412.56;5065780;28;20108;-74
2023/08/24 08:51:41;;;;;;;13.68;11.40;;;;;;;19.48;99.35;101417.66;5065523;28;20258;-73
2023/08/24 08:54:06;;;;;;;10.90;9.65;;;;;;;19.48;99.40;101417.66;5067744;28;20083;-74
2023/08/24 08:56:32;;;;;;;13.52;9.32;;;;;;;19.51;99.21;101414.78;5053671;28;20193;-74
2023/08/24 08:59:00;;;;;;;37.20;13.50;;;;;;;19.53;99.26;101408.41;5052499;28;20327;-74
2023/08/24 09:01:27;;;;;;;21.05;11.02;;;;;;;19.56;99.43;101413.50;5050597;28;20049;-74
2023/08/24 09:03:53;;;;;;;13.90;9.95;;;;;;;19.61;99.61;101397.25;5046951;28;20067;-74
2023/08/24 09:06:19;;;;;;;14.35;9.35;;;;;;;19.63;99.24;101400.66;5049450;28;20036;-73
2023/08/24 09:08:45;;;;;;;10.57;9.45;;;;;;;19.65;99.22;101397.88;5052362;28;20236;-74
2023/08/24 09:11:10;;;;;;;13.32;10.13;;;;;;;19.67;99.26;101394.16;5052130;28;20067;-73
2023/08/24 09:13:36;;;;;;;12.68;9.45;;;;;;;19.68;99.22;101398.53;5041157;28;20037;-74
2023/08/24 09:16:08;;;;;;;12.50;9.93;;;;;;;19.71;99.31;101408.91;5055985;28;20032;-74
2023/08/24 09:18:36;;;;;;;9.45;8.50;;;;;;;19.74;99.04;101415.88;5053903;28;20025;-74
2023/08/24 09:21:08;;;;;;;15.45;9.63;;;;;;;19.77;99.53;101425.44;5051291;28;20035;-74
2023/08/24 09:23:33;;;;;;;12.15;9.63;;;;;;;19.79;99.69;101432.31;5046278;28;20064;-74
2023/08/24 09:25:58;;;;;;;13.48;11.10;;;;;;;19.83;99.62;101433.81;5045121;28;20037;-74
2023/08/24 09:28:24;;;;;;;15.45;9.70;;;;;;;19.85;99.23;101428.41;5055389;28;20085;-74
2023/08/24 09:30:55;;;;;;;14.85;10.20;;;;;;;19.88;99.48;101433.50;5056924;28;20141;-74
2023/08/24 09:33:22;;;;;;;8.70;7.82;;;;;;;19.90;99.06;101432.44;5046037;28;20043;-74
2023/08/24 09:35:53;;;;;;;10.27;8.65;;;;;;;19.93;98.92;101431.38;5053783;28;20041;-74
2023/08/24 09:38:19;;;;;;;10.05;9.05;;;;;;;19.94;98.63;101425.09;5055594;28;20041;-74
2023/08/24 09:40:55;;;;;;;9.82;8.27;;;;;;;19.94;98.39;101423.28;5057936;28;20355;-74
2023/08/24 09:43:21;;;;;;;8.00;7.00;;;;;;;19.93;98.35;101424.22;5055395;28;20297;-74
2023/08/24 09:45:50;;;;;;;7.82;7.20;;;;;;;19.94;98.40;101417.97;5056991;28;20402;-74
2023/08/24 09:48:17;;;;;;;7.85;7.15;;;;;;;19.93;98.44;101424.22;5058849;28;20064;-74
2023/08/24 09:50:45;;;;;;;9.02;6.60;;;;;;;19.94;98.24;101439.22;5060258;28;20045;-74
2023/08/24 09:53:17;;;;;;;8.23;6.82;;;;;;;19.94;98.07;101449.03;5074583;28;20036;-74
2023/08/24 09:55:48;;;;;;;7.07;6.38;;;;;;;19.94;98.19;101457.00;5053146;28;20033;-74
2023/08/24 09:58:14;;;;;;;7.53;6.78;;;;;;;19.92;98.24;101451.78;5063667;28;20426;-74
2023/08/24 10:00:41;;;;;;;6.78;6.07;;;;;;;19.93;98.28;101456.13;5059310;28;20037;-74
2023/08/24 10:03:08;;;;;;;9.20;6.85;;;;;;;19.93;98.29;101456.13;5060064;28;20041;-74
2023/08/24 10:05:34;;;;;;;9.90;6.50;;;;;;;19.93;98.42;101457.94;5058124;28;20056;-74
2023/08/24 10:08:01;;;;;;;7.97;6.55;;;;;;;19.94;98.42;101457.00;5061469;28;20044;-74
2023/08/24 10:10:28;;;;;;;9.00;8.05;;;;;;;19.96;98.26;101462.22;5059594;28;20114;-74
2023/08/24 10:13:00;;;;;;;6.25;5.28;;;;;;;19.94;97.94;101455.19;5060331;28;20040;-74
2023/08/24 10:15:26;;;;;;;4.85;4.45;;;;;;;19.95;98.10;101445.38;5057645;28;20060;-74
2023/08/24 10:17:53;;;;;;;6.25;5.63;;;;;;;19.96;98.08;101428.50;5052336;28;20209;-74
2023/08/24 10:20:20;;;;;;;8.73;6.93;;;;;;;19.97;98.37;101411.56;5060852;28;20033;-74
2023/08/24 10:22:47;;;;;;;13.98;6.50;;;;;;;19.97;98.15;101400.94;5060965;28;20056;-74
2023/08/24 10:25:13;;;;;;;7.82;7.00;;;;;;;19.99;98.29;101399.00;5058087;28;20036;-74
2023/08/24 10:27:43;;;;;;;8.07;6.93;;;;;;;20.00;98.73;101395.41;5058569;28;20121;-74
2023/08/24 10:30:12;;;;;;;8.38;6.63;;;;;;;20.01;98.30;101405.09;5060202;28;20057;-74
2023/08/24 10:32:39;;;;;;;7.05;6.10;;;;;;;20.03;98.53;101399.63;5058582;28;20033;-74
2023/08/24 10:35:05;;;;;;;7.85;7.13;;;;;;;20.06;98.71;101399.44;5049474;28;20033;-74
2023/08/24 10:37:34;;;;;;;8.45;7.53;;;;;;;20.08;98.81;101400.16;5047363;28;20276;-74
2023/08/24 10:39:59;;;;;;;;;;;;;;;20.10;99.07;101388.47;5048038;28;20055;-74
2023/08/24 10:42:26;;;;;;;17.33;11.00;;;;;;;20.13;99.68;101380.25;5052974;28;19980;-74
2023/08/24 10:44:52;;;;;;;19.65;12.02;;;;;;;20.19;100.00;101370.16;5047531;28;20047;-74
2023/08/24 10:47:17;;;;;;;14.32;10.70;;;;;;;20.24;100.00;101375.97;5054400;28;20037;-74
2023/08/24 10:49:44;;;;;;;13.70;9.43;;;;;;;20.29;100.00;101385.31;5045983;28;20041;-74
2023/08/24 10:52:36;;;;;;;12.13;10.48;;;;;;;20.34;100.00;101379.69;5048237;28;20359;-74
2023/08/24 10:55:04;;;;;;;17.00;11.20;;;;;;;20.39;100.00;101381.97;5040758;28;20034;-74
2023/08/24 10:57:41;;;;;;;12.95;11.52;;;;;;;20.42;100.00;101389.75;5056545;28;20051;-74
2023/08/24 11:00:11;;;;;;;14.77;11.18;;;;;;;20.44;100.00;101385.16;5056768;28;20152;-74
2023/08/24 11:02:57;;;;;;;12.77;11.40;;;;;;;20.46;100.00;101386.72;5060451;28;20061;-74
2023/08/24 11:05:30;;;;;;;19.15;10.73;;;;;;;20.46;100.00;101391.22;5050087;28;20036;-74
2023/08/24 11:08:00;;;;;;;10.98;9.88;;;;;;;20.49;100.00;101383.00;5061392;28;20044;-74
2023/08/24 11:10:46;;;;;;;17.20;11.40;;;;;;;20.49;100.00;101369.72;5060581;28;20081;-74
2023/08/24 11:13:11;;;;;;;11.35;10.18;;;;;;;20.50;100.00;101380.25;5047929;28;20058;-74
2023/08/24 11:15:42;;;;;;;11.90;8.93;;;;;;;20.50;100.00;101366.06;5053351;28;20369;-74
2023/08/24 11:18:23;;;;;;;10.02;8.55;;;;;;;20.51;100.00;101365.97;5057342;28;20043;-74